Tuesday, December 18, 2018, 5:05 PM EST
Back to Local

KEEN, Keene, Dillant-hopkins Airport

Location: Keene, NH, United States Lat: 42.9
Local Time: 5:05 PM EST (22:05 GMT) Lon: -72.267
Time Zone: US/Eastern Elev: 488 ft

Show me the last for .
Show Decoded

2018-12-18 15:56 METAR KEEN 182056Z AUTO 32008KT 10SM CLR M03/M12 A2997 RMK AO2 SLP171 T10331117
                 51022 FZRANO $ =
2018-12-18 14:56 METAR KEEN 181956Z AUTO 35013KT 10SM BKN044 M02/M11 A2995 RMK AO2 SLP163
                 T10221111 FZRANO $ =
2018-12-18 13:56 METAR KEEN 181856Z AUTO 33014G24KT 10SM FEW043 M02/M11 A2993 RMK AO2 PK WND
                 35027/1836 SLP155 T10221111 FZRANO $ =
2018-12-18 12:56 METAR KEEN 181756Z AUTO 34014G22KT 10SM CLR M03/M11 A2991 RMK AO2 PK WND
                 35029/1723 SLP148 60000 T10331111 11033 21067 55004 FZRANO $ =
2018-12-18 11:56 METAR KEEN 181656Z AUTO 34021G27KT 10SM CLR M04/M12 A2990 RMK AO2 PK WND
                 35027/1656 SLP148 T10391117 FZRANO $ =
2018-12-18 10:56 METAR KEEN 181556Z AUTO 32016G22KT 10SM SCT039 M04/M12 A2991 RMK AO2 PK WND
                 33028/1512 SLP150 T10391122 FZRANO $ =
2018-12-18 09:56 METAR KEEN 181456Z AUTO 32016G25KT 10SM SCT039 M04/M13 A2992 RMK AO2 SLP153
                 60000 T10441128 51031 FZRANO $ =
2018-12-18 08:56 METAR KEEN 181356Z AUTO 34017G22KT 10SM BKN041 M06/M13 A2990 RMK AO2 SLP147
                 T10561128 FZRANO $ =
2018-12-18 07:56 METAR KEEN 181256Z AUTO 32015G22KT 10SM CLR M07/M13 A2987 RMK AO2 PK WND
                 31030/1200 SNB03E12 SLP136 P0000 T10671133 FZRANO $ =
2018-12-18 06:56 METAR KEEN 181156Z AUTO 31013G20KT 6SM HZ BKN043 M07/M13 A2983 RMK AO2 SLP122
                 60000 7//// T10671133 11033 21067 51027 FZRANO $ =
2018-12-18 05:56 METAR KEEN 181056Z AUTO 31018G25KT 10SM OVC043 M06/M13 A2981 RMK AO2 SLP117
                 T10611133 FZRANO $ =
2018-12-18 04:56 METAR KEEN 180956Z AUTO 34013G25KT 10SM OVC043 M06/M13 A2978 RMK AO2 PK WND
                 33029/0944 SNB37E47 SLP105 P0000 T10611133 FZRANO $ =
2018-12-18 03:56 METAR KEEN 180856Z AUTO 33017G26KT 290V010 10SM OVC045 M06/M13 A2975 RMK AO2 PK
                 WND 32028/0814 SLP094 60000 T10611133 51034 FZRANO $ =
2018-12-18 02:56 METAR KEEN 180756Z AUTO 34020G32KT 10SM CLR M06/M13 A2973 RMK AO2 PK WND
                 32032/0754 SNB06E16 SLP089 P0000 T10611133 FZRANO $ =
2018-12-18 01:56 METAR KEEN 180656Z AUTO 34018G25KT 10SM BKN033 M04/M10 A2969 RMK AO2 SNE05
                 SLP074 P0000 T10441100 FZRANO $ =
2018-12-18 00:56 METAR KEEN 180556Z AUTO 33006KT 9SM -SN FEW037 SCT043 BKN050 M03/M08 A2964 RMK
                 AO2 PK WND 34026/0524 SLP058 P0000 60000 T10331078 10022 21033 53022 FZRANO $ =
2018-12-18 00:27 METAR KEEN 180527Z AUTO 33019G26KT 9SM -SN FEW023 OVC039 M02/M07 A2963 RMK AO2
                 PK WND 34026/0524 P0000 FZRANO $ =
2018-12-18 00:14 METAR KEEN 180514Z AUTO 34013G20KT 7SM -SN SCT006 BKN023 OVC033 M02/M04 A2962
                 RMK AO2 P0000 FZRANO $ =
2018-12-18 00:06 METAR KEEN 180506Z AUTO 33010G19KT 4SM -SN BR BKN006 BKN015 OVC033 M02/M03 A2962
                 RMK AO2 CIG 003V012 P0000 FZRANO $ =
2018-12-18 00:00 METAR KEEN 180500Z AUTO 34011G19KT 2SM -SN BR BKN004 BKN013 OVC022 M02/M03 A2961
                 RMK AO2 VIS 1 1/4V4 CIG 003V009 P0000 FZRANO $ =
2018-12-17 23:56 METAR KEEN 180456Z AUTO 34012KT 1SM -SN BR BKN004 BKN009 OVC013 M02/M03 A2961
                 RMK AO2 WSHFT 0420 RAB22E27SNB27 SLP046 P0000 T10171033 400331017 FZRANO $ =
2018-12-17 23:54 METAR KEEN 180454Z AUTO 34014G19KT 1SM -SN BR BKN004 OVC009 M02/M03 A2961 RMK
                 AO2 WSHFT 0420 RAB22E27SNB27 CIG 003V007 P0000 400331017 FZRANO $ =
2018-12-17 23:43 METAR KEEN 180443Z AUTO 33010G20KT 1/2SM SN FZFG BKN004 OVC033 M01/M03 A2960 RMK
                 AO2 WSHFT 0420 RAB22E27SNB27 P0000 FZRANO $ =
2018-12-17 23:36 METAR KEEN 180436Z AUTO 33014G22KT 1/2SM SN FZFG SCT004 BKN033 OVC080 M01/M02
                 A2960 RMK AO2 WSHFT 0420 RAB22E27SNB27 PRESRR P0000 FZRANO $ =
2018-12-17 23:33 METAR KEEN 180433Z AUTO 35018G22KT 1SM -SN BR SCT006 BKN033 OVC080 M01/M02 A2959
                 RMK AO2 RAB22E27SNB27 P0000 FZRANO $ =
2018-12-17 23:29 METAR KEEN 180429Z AUTO 35014G21KT 2 1/2SM -SN BR FEW008 BKN033 OVC080 M01/M03
                 A2959 RMK AO2 RAB22E27SNB27 P0000 FZRANO $ =
2018-12-17 22:56 METAR KEEN 180356Z AUTO 29008G16KT 10SM FEW036 SCT080 OVC110 02/M05 A2958 RMK
                 AO2 SLP036 T00171050 FZRANO $ =
2018-12-17 21:56 METAR KEEN 180256Z AUTO 29007KT 10SM FEW030 OVC038 02/M04 A2958 RMK AO2 SLP036
                 T00221039 58002 FZRANO $ =
2018-12-17 20:56 METAR KEEN 180156Z AUTO 33003KT 10SM BKN035 OVC042 02/M03 A2958 RMK AO2 SLP038
                 T00221033 FZRANO $ =
2018-12-17 19:56 METAR KEEN 180056Z AUTO 29006KT 10SM BKN048 BKN060 OVC075 02/M03 A2959 RMK AO2
                 SLP040 T00221033 FZRANO $ =
2018-12-17 18:56 METAR KEEN 172356Z AUTO 30007KT 10SM OVC075 02/M03 A2958 RMK AO2 RAB2257E06
                 SLP039 P0000 6//// T00221028 10033 20022 51011 FZRANO $ =
2018-12-17 17:56 METAR KEEN 172256Z AUTO 29008KT 10SM FEW037 BKN050 OVC070 02/M03 A2958 RMK AO2
                 SLP037 T00221028 FZRANO $ =

Support USWX by starting your Amazon purchase here.